This is the latest recevied weather packets stored in our database for station/object DC1RS. If no packets are shown the sender has not sent any weather packets the latest 10 day(s).
| Time | Temp. | Humidity | Pressure | Rain* | Wind** | Luminosity | Snow |
|---|---|---|---|---|---|---|---|
| 1777620101 | 13.33° C | 46% | 1029.9 hPa | 0 mm | - | 443 W/m² | - |
| 1777618512 | 12.22° C | 48% | 1030.1 hPa | 0 mm | - | 358 W/m² | - |
| 1777617741 | 12.22° C | 49% | 1029.9 hPa | 0 mm | - | 324 W/m² | - |
| 1777616451 | 10.56° C | 53% | 1029.7 hPa | 0 mm | - | 252 W/m² | - |
| 1777614861 | 8.89° C | 56% | 1029.5 hPa | 0 mm | - | 164 W/m² | - |
| 1777613571 | 6.67° C | 62% | 1029.4 hPa | 0 mm | - | 104 W/m² | - |
| 1777611951 | 5° C | 70% | 1029.3 hPa | 0 mm | - | 51 W/m² | - |
| 1777610361 | 3.89° C | 73% | 1029.2 hPa | 0 mm | - | 28 W/m² | - |
| 1777608531 | 2.22° C | 75% | 1029 hPa | 0 mm | - | 12 W/m² | - |
| 1777606941 | 2.78° C | 73% | 1028.9 hPa | 0 mm | - | 2 W/m² | - |
| 1777606152 | 2.78° C | 70% | 1028.9 hPa | 0 mm | - | 0 W/m² | - |
| 1777605711 | 3.33° C | 69% | 1029 hPa | 0 mm | - | 0 W/m² | - |
| 1777604121 | 3.33° C | 65% | 1028.8 hPa | 0 mm | - | 0 W/m² | - |
| 1777601211 | 3.89° C | 63% | 1028.6 hPa | 0 mm | - | 0 W/m² | - |
| 1777599651 | 4.44° C | 61% | 1028.5 hPa | 0 mm | - | 0 W/m² | - |
| 1777598721 | 5° C | 59% | 1028.7 hPa | 0 mm | - | 0 W/m² | - |
| 1777598391 | 5° C | 57% | 1028.7 hPa | 0 mm | - | 0 W/m² | - |
| 1777596831 | 6.11° C | 53% | 1028.3 hPa | 0 mm | - | 0 W/m² | - |
| 1777595241 | 6.11° C | 52% | 1028.3 hPa | 0 mm | - | 0 W/m² | - |
| 1777593651 | 6.67° C | 49% | 1028.2 hPa | 0 mm | - | 0 W/m² | - |
| 1777592061 | 6.67° C | 49% | 1028.6 hPa | 0 mm | - | 0 W/m² | - |
| 1777590771 | 7.22° C | 49% | 1028.3 hPa | 0 mm | - | 0 W/m² | - |
| 1777589241 | 7.78° C | 45% | 1028.3 hPa | 0 mm | - | 0 W/m² | - |
| 1777587651 | 8.89° C | 41% | 1028.4 hPa | 0 mm | - | 0 W/m² | - |
| 1777585731 | 9.44° C | 38% | 1028 hPa | 0 mm | - | 0 W/m² | - |
* Rain latest hour (hover to see other rain measurements)
** Current wind speed in m/s (hover to see current wind gust speed)